Time;durP1;ratioP1;P1;durP2;ratioP2;P2;SDS_P1;SDS_P2;PMS_P1;PMS_P2;Temp;Humidity;BMP_temperature;BMP_pressure;BME280_temperature;BME280_humidity;BME280_pressure;Samples;Min_cycle;Max_cycle;Signal;HPM_P1;HPM_P2
2022/08/21 00:01:51;;;;;;;;;;;24.70;55.50;;;;;;6328484;27;19978;-38
2022/08/21 00:04:53;;;;;;;;;;;24.50;55.50;;;;;;6334226;27;19923;-39
2022/08/21 00:07:59;;;;;;;;;;;24.40;55.30;;;;;;6317949;27;20692;-40
2022/08/21 00:11:01;;;;;;;;;;;24.50;55.40;;;;;;6331537;27;19923;-41
2022/08/21 00:14:03;;;;;;;;;;;24.60;55.50;;;;;;6333812;27;19970;-38
2022/08/21 00:17:04;;;;;;;;;;;24.60;55.50;;;;;;6316372;27;19927;-39
2022/08/21 00:20:08;;;;;;;;;;;24.90;55.60;;;;;;6331976;27;19923;-38
2022/08/21 00:23:10;;;;;;;;;;;24.50;55.50;;;;;;6330154;27;20025;-38
2022/08/21 00:26:12;;;;;;;;;;;24.40;55.40;;;;;;6313570;27;20888;-39
2022/08/21 00:29:13;;;;;;;;;;;24.40;55.40;;;;;;6331901;27;19923;-40
2022/08/21 00:32:22;;;;;;;;;;;24.70;55.60;;;;;;6327651;27;19991;-38
2022/08/21 00:35:32;;;;;;;;;;;24.70;55.70;;;;;;6323315;27;20030;-40
2022/08/21 00:38:34;;;;;;;;;;;24.60;55.60;;;;;;6306554;27;20290;-39
2022/08/21 00:41:37;;;;;;;;;;;24.30;55.50;;;;;;6325070;27;20236;-40
2022/08/21 00:44:40;;;;;;;;;;;24.60;55.60;;;;;;6315627;27;19927;-39
2022/08/21 00:47:41;;;;;;;;;;;24.40;55.60;;;;;;6329896;27;20049;-39
2022/08/21 00:50:46;;;;;;;;;;;24.30;55.50;;;;;;6296661;27;19928;-40
2022/08/21 00:53:49;;;;;;;;;;;24.30;55.70;;;;;;6317888;27;20057;-42
2022/08/21 00:56:57;;;;;;;;;;;24.60;55.70;;;;;;6314936;27;19965;-40
2022/08/21 01:00:01;;;;;;;;;;;24.40;55.60;;;;;;6300412;27;19933;-40
2022/08/21 01:03:07;;;;;;;;;;;24.60;55.70;;;;;;6319843;27;19935;-41
2022/08/21 01:06:10;;;;;;;;;;;24.50;56.30;;;;;;6317325;27;20269;-39
2022/08/21 01:09:12;;;;;;;;;;;24.50;55.60;;;;;;6326259;27;19931;-39
2022/08/21 01:12:14;;;;;;;;;;;24.30;55.60;;;;;;6332209;27;20940;-41
2022/08/21 01:15:16;;;;;;;;;;;24.50;55.60;;;;;;6315043;27;20242;-39
2022/08/21 01:18:18;;;;;;;;;;;24.30;55.50;;;;;;6314709;27;20471;-39
2022/08/21 01:21:22;;;;;;;;;;;24.50;55.70;;;;;;6316142;27;19934;-39
2022/08/21 01:24:31;;;;;;;;;;;24.30;55.60;;;;;;6318648;27;20616;-38
2022/08/21 01:27:32;;;;;;;;;;;24.80;55.90;;;;;;6314116;27;19975;-40
2022/08/21 01:30:34;;;;;;;;;;;24.30;55.60;;;;;;6297486;27;19923;-39
2022/08/21 01:33:36;;;;;;;;;;;24.60;55.80;;;;;;6297925;27;19932;-41
2022/08/21 01:36:38;;;;;;;;;;;24.50;55.70;;;;;;6318373;27;20470;-40
2022/08/21 01:39:40;;;;;;;;;;;24.40;55.70;;;;;;6319335;27;20365;-38
2022/08/21 01:42:41;;;;;;;;;;;24.40;55.70;;;;;;6319431;27;19923;-40
2022/08/21 01:45:43;;;;;;;;;;;24.40;55.70;;;;;;6318054;27;20170;-41
2022/08/21 01:48:44;;;;;;;;;;;24.20;55.70;;;;;;6320342;27;20960;-39
2022/08/21 01:51:46;;;;;;;;;;;24.60;55.80;;;;;;6320454;27;20380;-39
2022/08/21 01:54:47;;;;;;;;;;;24.20;55.70;;;;;;6319954;27;19930;-41
2022/08/21 01:58:00;;;;;;;;;;;24.40;55.80;;;;;;6320102;27;19924;-39
2022/08/21 02:01:02;;;;;;;;;;;24.40;55.70;;;;;;6318461;27;21359;-40
2022/08/21 02:04:07;;;;;;;;;;;24.50;55.80;;;;;;6299315;27;19931;-38
2022/08/21 02:07:09;;;;;;;;;;;24.60;55.90;;;;;;6322055;27;20308;-42
2022/08/21 02:10:12;;;;;;;;;;;24.20;55.70;;;;;;6317925;27;19988;-41
2022/08/21 02:13:13;;;;;;;;;;;24.20;55.70;;;;;;6324115;27;20680;-40
2022/08/21 02:16:15;;;;;;;;;;;24.20;55.70;;;;;;6320260;27;19966;-38
2022/08/21 02:19:20;;;;;;;;;;;24.20;55.70;;;;;;6299845;27;19935;-39
2022/08/21 02:22:22;;;;;;;;;;;24.40;56.50;;;;;;6315999;27;19934;-39
2022/08/21 02:25:25;;;;;;;;;;;24.30;55.80;;;;;;6317182;27;20038;-40
2022/08/21 02:28:26;;;;;;;;;;;24.40;55.90;;;;;;6298029;27;20363;-42
2022/08/21 02:31:28;;;;;;;;;;;24.20;55.70;;;;;;6299303;27;20196;-42
2022/08/21 02:34:33;;;;;;;;;;;24.20;55.70;;;;;;6319998;27;20435;-45
2022/08/21 02:37:41;;;;;;;;;;;24.30;55.80;;;;;;6319916;27;20283;-39
2022/08/21 02:40:44;;;;;;;;;;;24.20;55.80;;;;;;6319950;27;21954;-41
2022/08/21 02:43:51;;;;;;;;;;;24.20;55.90;;;;;;6323983;27;20521;-39
2022/08/21 02:46:53;;;;;;;;;;;24.40;56.60;;;;;;6324046;27;20272;-42
2022/08/21 02:49:54;;;;;;;;;;;24.40;56.00;;;;;;6324108;27;20199;-41
2022/08/21 02:52:56;;;;;;;;;;;24.30;55.90;;;;;;6324195;27;20154;-43
2022/08/21 02:55:59;;;;;;;;;;;24.20;55.90;;;;;;6322651;27;19946;-39
2022/08/21 02:59:04;;;;;;;;;;;24.30;55.90;;;;;;6321929;27;20310;-40
2022/08/21 03:02:05;;;;;;;;;;;24.10;55.90;;;;;;6322472;27;19927;-38
2022/08/21 03:05:08;;;;;;;;;;;24.40;56.60;;;;;;6323234;27;19923;-40
2022/08/21 03:08:12;;;;;;;;;;;24.40;56.00;;;;;;6322275;27;20421;-40
2022/08/21 03:11:14;;;;;;;;;;;24.30;55.90;;;;;;6321556;27;20026;-40
2022/08/21 03:14:16;;;;;;;;;;;24.20;55.90;;;;;;6304809;27;19923;-39
2022/08/21 03:17:17;;;;;;;;;;;24.20;55.90;;;;;;6323980;27;19969;-43
2022/08/21 03:20:32;;;;;;;;;;;24.00;55.80;;;;;;6323859;27;20481;-38
2022/08/21 03:23:34;;;;;;;;;;;24.40;56.00;;;;;;6321527;27;20257;-38
2022/08/21 03:26:36;;;;;;;;;;;24.40;56.00;;;;;;6322517;27;20168;-38
2022/08/21 03:29:41;;;;;;;;;;;24.20;55.90;;;;;;6325925;27;19923;-41
2022/08/21 03:32:42;;;;;;;;;;;24.00;55.80;;;;;;6322550;27;20481;-38
2022/08/21 03:35:45;;;;;;;;;;;24.10;55.90;;;;;;6324414;27;19927;-41
2022/08/21 03:38:47;;;;;;;;;;;24.50;56.00;;;;;;6326184;27;19958;-39
2022/08/21 03:41:48;;;;;;;;;;;24.40;56.00;;;;;;6323744;27;20479;-39
2022/08/21 03:44:50;;;;;;;;;;;24.10;55.80;;;;;;6324158;27;20138;-41
2022/08/21 03:47:52;;;;;;;;;;;24.00;55.80;;;;;;6304882;27;20090;-40
2022/08/21 03:50:54;;;;;;;;;;;24.10;55.90;;;;;;6305156;27;19980;-40
2022/08/21 03:53:56;;;;;;;;;;;24.00;55.90;;;;;;6321968;27;20522;-40
2022/08/21 03:56:57;;;;;;;;;;;24.00;55.80;;;;;;6321835;27;19974;-41
2022/08/21 03:59:59;;;;;;;;;;;23.90;56.40;;;;;;6322279;27;20481;-40
2022/08/21 04:03:00;;;;;;;;;;;23.90;55.70;;;;;;6323385;27;20005;-39
2022/08/21 04:06:05;;;;;;;;;;;24.30;56.00;;;;;;6312888;27;20085;-39
2022/08/21 04:09:07;;;;;;;;;;;24.10;55.90;;;;;;6320728;27;19930;-41
2022/08/21 04:12:09;;;;;;;;;;;24.20;56.00;;;;;;6319623;27;20695;-39
2022/08/21 04:15:10;;;;;;;;;;;24.00;55.90;;;;;;6317954;27;20162;-38
2022/08/21 04:18:12;;;;;;;;;;;24.10;55.90;;;;;;6315372;27;20236;-39
2022/08/21 04:21:14;;;;;;;;;;;24.00;55.90;;;;;;6299364;27;20751;-41
2022/08/21 04:24:16;;;;;;;;;;;24.30;56.00;;;;;;6315564;27;19931;-43
2022/08/21 04:27:18;;;;;;;;;;;24.10;55.90;;;;;;6317666;27;20172;-40
2022/08/21 04:30:19;;;;;;;;;;;24.00;55.90;;;;;;6316930;27;19923;-41
2022/08/21 04:33:21;;;;;;;;;;;24.40;56.10;;;;;;6316159;27;20184;-40
2022/08/21 04:36:26;;;;;;;;;;;24.30;56.00;;;;;;6300499;27;20213;-40
2022/08/21 04:39:28;;;;;;;;;;;23.90;55.90;;;;;;6300379;27;19930;-41
2022/08/21 04:42:31;;;;;;;;;;;24.20;56.00;;;;;;6317836;27;19924;-39
2022/08/21 04:45:33;;;;;;;;;;;23.90;55.80;;;;;;6317753;27;19923;-39
2022/08/21 04:48:34;;;;;;;;;;;24.30;56.00;;;;;;6298368;27;19935;-39
2022/08/21 04:51:38;;;;;;;;;;;23.90;56.50;;;;;;6316961;27;20496;-39
2022/08/21 04:54:40;;;;;;;;;;;24.30;56.10;;;;;;6316847;27;19924;-42
2022/08/21 04:57:41;;;;;;;;;;;23.80;55.80;;;;;;6318387;27;20094;-41
2022/08/21 05:00:51;;;;;;;;;;;23.90;55.90;;;;;;6317707;27;20511;-39
2022/08/21 05:03:55;;;;;;;;;;;23.80;55.90;;;;;;6314603;27;20449;-40
2022/08/21 05:06:57;;;;;;;;;;;24.10;56.00;;;;;;6317264;27;19926;-39
2022/08/21 05:10:00;;;;;;;;;;;24.00;56.00;;;;;;6298244;27;20126;-40
2022/08/21 05:13:01;;;;;;;;;;;24.20;56.10;;;;;;6317460;27;19926;-39
2022/08/21 05:16:03;;;;;;;;;;;23.80;56.50;;;;;;6316855;27;20438;-39
2022/08/21 05:19:04;;;;;;;;;;;24.00;56.00;;;;;;6316740;27;19976;-40
2022/08/21 05:22:06;;;;;;;;;;;23.80;55.90;;;;;;6317087;27;20035;-41
2022/08/21 05:25:09;;;;;;;;;;;23.80;55.90;;;;;;6315765;27;20712;-39
2022/08/21 05:28:12;;;;;;;;;;;24.00;55.90;;;;;;6314049;27;20562;-40
2022/08/21 05:31:14;;;;;;;;;;;23.90;56.00;;;;;;6316837;27;20187;-42
2022/08/21 05:34:18;;;;;;;;;;;23.90;56.00;;;;;;6317129;27;20474;-39
2022/08/21 05:37:21;;;;;;;;;;;24.20;56.10;;;;;;6312687;27;19923;-38
2022/08/21 05:40:23;;;;;;;;;;;24.10;56.10;;;;;;6317645;27;20964;-39
2022/08/21 05:43:24;;;;;;;;;;;24.20;56.20;;;;;;6317153;27;20151;-38
2022/08/21 05:46:25;;;;;;;;;;;23.80;56.00;;;;;;6313860;27;19954;-40
2022/08/21 05:49:27;;;;;;;;;;;23.90;56.00;;;;;;6313412;27;20025;-39
2022/08/21 05:52:28;;;;;;;;;;;23.90;56.00;;;;;;6315359;27;20256;-41
2022/08/21 05:55:30;;;;;;;;;;;24.20;56.20;;;;;;6314491;27;19996;-39
2022/08/21 05:58:35;;;;;;;;;;;23.90;56.00;;;;;;6315301;27;20061;-41
2022/08/21 06:01:39;;;;;;;;;;;23.90;56.00;;;;;;6314008;27;20456;-39
2022/08/21 06:04:40;;;;;;;;;;;23.80;56.00;;;;;;6310426;27;19924;-39
2022/08/21 06:07:42;;;;;;;;;;;24.10;56.10;;;;;;6311282;27;19970;-39
2022/08/21 06:10:44;;;;;;;;;;;23.90;56.10;;;;;;6300634;27;19946;-40
2022/08/21 06:13:45;;;;;;;;;;;23.70;55.90;;;;;;6304453;27;20063;-42
2022/08/21 06:16:47;;;;;;;;;;;24.10;56.80;;;;;;6309507;27;19935;-40
2022/08/21 06:19:50;;;;;;;;;;;24.10;56.10;;;;;;6313710;27;20671;-39
2022/08/21 06:22:52;;;;;;;;;;;23.70;55.90;;;;;;6304883;27;19943;-40
2022/08/21 06:25:54;;;;;;;;;;;24.00;56.10;;;;;;6309969;27;19974;-40
2022/08/21 06:28:57;;;;;;;;;;;24.00;56.70;;;;;;6310505;27;20343;-42
2022/08/21 06:31:58;;;;;;;;;;;24.10;56.10;;;;;;6308284;27;20840;-40
2022/08/21 06:35:00;;;;;;;;;;;23.80;56.00;;;;;;6310653;27;20453;-41
2022/08/21 06:38:02;;;;;;;;;;;24.30;56.20;;;;;;6312245;27;20126;-39
2022/08/21 06:41:04;;;;;;;;;;;24.20;56.20;;;;;;6306568;27;20176;-39
2022/08/21 06:44:06;;;;;;;;;;;24.20;56.20;;;;;;6313706;27;20329;-41
2022/08/21 06:47:08;;;;;;;;;;;23.80;56.00;;;;;;6311727;27;20096;-39
2022/08/21 06:50:09;;;;;;;;;;;24.20;56.10;;;;;;6310693;27;20397;-39
2022/08/21 06:53:15;;;;;;;;;;;23.80;56.00;;;;;;6309155;27;19995;-40
2022/08/21 06:56:17;;;;;;;;;;;23.80;55.90;;;;;;6309675;27;20755;-39
2022/08/21 06:59:18;;;;;;;;;;;23.80;55.90;;;;;;6307284;27;20591;-41
2022/08/21 07:02:20;;;;;;;;;;;24.40;56.20;;;;;;6310037;27;19927;-38
2022/08/21 07:05:21;;;;;;;;;;;24.00;56.00;;;;;;6308070;27;20420;-38
2022/08/21 07:08:23;;;;;;;;;;;24.20;56.10;;;;;;6309228;27;20857;-40
2022/08/21 07:11:25;;;;;;;;;;;23.80;55.90;;;;;;6311119;27;20319;-42
2022/08/21 07:14:26;;;;;;;;;;;23.90;55.90;;;;;;6309225;27;20406;-41
2022/08/21 07:17:27;;;;;;;;;;;24.20;56.10;;;;;;6306233;27;19927;-41
2022/08/21 07:20:30;;;;;;;;;;;23.90;55.90;;;;;;6307582;27;20413;-39
2022/08/21 07:23:32;;;;;;;;;;;23.90;55.90;;;;;;6312674;27;20450;-41
2022/08/21 07:26:34;;;;;;;;;;;24.00;55.90;;;;;;6295574;27;20001;-39
2022/08/21 07:29:36;;;;;;;;;;;23.90;55.80;;;;;;6313119;27;20451;-40
2022/08/21 07:32:40;;;;;;;;;;;24.30;56.10;;;;;;6310510;27;20249;-39
2022/08/21 07:35:42;;;;;;;;;;;24.10;55.90;;;;;;6312816;27;20025;-41
2022/08/21 07:38:43;;;;;;;;;;;23.90;55.90;;;;;;6310807;27;20207;-40
2022/08/21 07:41:45;;;;;;;;;;;24.00;55.90;;;;;;6311065;27;20002;-38
2022/08/21 07:44:46;;;;;;;;;;;24.30;56.00;;;;;;6308606;27;20185;-41
2022/08/21 07:47:51;;;;;;;;;;;24.00;55.90;;;;;;6309039;27;20436;-41
2022/08/21 07:50:58;;;;;;;;;;;24.30;56.00;;;;;;6287369;27;19961;-42
2022/08/21 07:54:00;;;;;;;;;;;24.10;55.80;;;;;;6306422;27;21017;-41
2022/08/21 07:57:02;;;;;;;;;;;24.20;55.90;;;;;;6304501;27;19958;-39
2022/08/21 08:00:04;;;;;;;;;;;23.90;55.80;;;;;;6288321;27;19923;-38
2022/08/21 08:03:13;;;;;;;;;;;23.90;55.70;;;;;;6283870;27;19923;-41
2022/08/21 08:06:18;;;;;;;;;;;24.30;56.00;;;;;;6300302;27;20783;-39
2022/08/21 08:09:19;;;;;;;;;;;24.20;55.90;;;;;;6298749;27;19950;-39
2022/08/21 08:12:21;;;;;;;;;;;23.90;55.70;;;;;;6300183;27;19937;-42
2022/08/21 08:15:24;;;;;;;;;;;24.20;55.90;;;;;;6299622;27;19926;-39
2022/08/21 08:18:25;;;;;;;;;;;24.10;55.80;;;;;;6300381;27;20549;-38
2022/08/21 08:21:27;;;;;;;;;;;24.40;55.90;;;;;;6297291;27;20381;-40
2022/08/21 08:24:28;;;;;;;;;;;24.00;55.70;;;;;;6303509;27;20816;-39
2022/08/21 08:27:30;;;;;;;;;;;24.20;55.80;;;;;;6302260;27;19953;-39
2022/08/21 08:30:32;;;;;;;;;;;24.10;55.70;;;;;;6298473;27;20230;-41
2022/08/21 08:33:34;;;;;;;;;;;24.40;55.90;;;;;;6307022;27;19973;-39
2022/08/21 08:36:38;;;;;;;;;;;24.30;55.80;;;;;;6301486;27;20594;-39
2022/08/21 08:39:41;;;;;;;;;;;24.00;55.60;;;;;;6283003;27;20385;-41
2022/08/21 08:42:44;;;;;;;;;;;24.30;55.80;;;;;;6300967;27;20730;-39
2022/08/21 08:45:47;;;;;;;;;;;24.00;55.60;;;;;;6296110;27;19987;-40
2022/08/21 08:48:51;;;;;;;;;;;24.00;55.60;;;;;;6302436;27;19949;-43
2022/08/21 08:51:57;;;;;;;;;;;24.00;55.60;;;;;;6299639;27;20062;-38
2022/08/21 08:55:02;;;;;;;;;;;24.30;55.80;;;;;;6299849;27;20220;-41
2022/08/21 08:58:03;;;;;;;;;;;24.00;55.50;;;;;;6301504;27;19935;-39
2022/08/21 09:01:06;;;;;;;;;;;24.10;55.60;;;;;;6299597;27;20191;-38
2022/08/21 09:04:13;;;;;;;;;;;24.20;55.60;;;;;;6296366;27;20907;-39
2022/08/21 09:07:18;;;;;;;;;;;24.10;55.40;;;;;;6280445;27;19926;-42
2022/08/21 09:10:22;;;;;;;;;;;24.90;55.90;;;;;;6302017;27;20159;-39
2022/08/21 09:13:32;;;;;;;;;;;24.30;56.10;;;;;;6309134;27;19953;-41
2022/08/21 09:16:45;;;;;;;;;;;24.60;55.60;;;;;;6302365;27;20401;-42
2022/08/21 09:19:54;;;;;;;;;;;24.30;55.50;;;;;;6299750;27;19997;-40
2022/08/21 09:23:07;;;;;;;;;;;24.60;55.60;;;;;;6304247;27;20376;-38
2022/08/21 09:26:12;;;;;;;;;;;24.20;55.50;;;;;;6297693;27;20618;-41
2022/08/21 09:29:17;;;;;;;;;;;24.40;55.50;;;;;;6263018;27;21658;-38
2022/08/21 09:32:20;;;;;;;;;;;24.40;55.50;;;;;;6285527;27;20117;-38
2022/08/21 09:35:22;;;;;;;;;;;24.50;55.60;;;;;;6301940;27;20774;-42
2022/08/21 09:38:25;;;;;;;;;;;24.50;55.50;;;;;;6304817;27;20239;-40
2022/08/21 09:41:30;;;;;;;;;;;24.50;55.60;;;;;;6283468;27;20182;-41
2022/08/21 09:44:35;;;;;;;;;;;24.10;55.30;;;;;;6277031;27;20098;-40
2022/08/21 09:47:37;;;;;;;;;;;24.50;55.50;;;;;;6280749;27;20042;-39
2022/08/21 09:50:39;;;;;;;;;;;24.40;55.50;;;;;;6288244;27;19962;-41
2022/08/21 09:53:44;;;;;;;;;;;24.50;55.50;;;;;;6290315;27;19927;-38
2022/08/21 10:00:15;;;;;;;;;;;24.50;55.50;;;;;;6284077;27;19937;-39
2022/08/21 10:03:19;;;;;;;;;;;24.20;55.20;;;;;;6280411;27;20408;-41
2022/08/21 10:06:25;;;;;;;;;;;24.70;55.50;;;;;;6286463;27;20119;-40
2022/08/21 10:09:26;;;;;;;;;;;24.50;55.40;;;;;;6305250;27;20153;-41
2022/08/21 10:12:32;;;;;;;;;;;24.60;55.50;;;;;;6308246;27;20480;-41
2022/08/21 10:15:40;;;;;;;;;;;24.30;55.30;;;;;;6310450;27;20099;-40
2022/08/21 10:18:42;;;;;;;;;;;24.70;55.40;;;;;;6305763;27;20970;-39
2022/08/21 10:21:49;;;;;;;;;;;24.30;55.20;;;;;;6297840;27;19930;-39
2022/08/21 10:24:55;;;;;;;;;;;24.70;55.40;;;;;;6302044;27;20140;-40
2022/08/21 10:28:00;;;;;;;;;;;24.70;55.30;;;;;;6294695;27;20065;-38
2022/08/21 10:31:07;;;;;;;;;;;24.70;55.30;;;;;;6296152;27;20278;-41
2022/08/21 10:34:17;;;;;;;;;;;24.50;55.20;;;;;;6297320;27;20278;-40
2022/08/21 10:37:24;;;;;;;;;;;24.70;55.50;;;;;;6298176;27;20030;-40
2022/08/21 10:40:27;;;;;;;;;;;24.50;55.10;;;;;;6295630;27;20190;-40
2022/08/21 10:43:33;;;;;;;;;;;24.80;55.30;;;;;;6303531;27;20843;-40
2022/08/21 10:46:41;;;;;;;;;;;24.50;55.10;;;;;;6304285;27;20336;-40
2022/08/21 10:49:45;;;;;;;;;;;24.90;55.40;;;;;;6297586;27;20029;-38
2022/08/21 10:52:55;;;;;;;;;;;24.70;55.20;;;;;;6300449;27;19934;-39
2022/08/21 10:56:01;;;;;;;;;;;24.70;55.20;;;;;;6303570;27;20055;-41
2022/08/21 10:59:07;;;;;;;;;;;24.50;55.10;;;;;;6298119;27;19976;-41
2022/08/21 11:02:13;;;;;;;;;;;25.00;55.30;;;;;;6306851;27;20024;-39
2022/08/21 11:05:18;;;;;;;;;;;24.40;55.00;;;;;;6285322;27;19927;-40
2022/08/21 11:08:25;;;;;;;;;;;24.70;55.20;;;;;;6311894;27;20190;-39
2022/08/21 11:11:31;;;;;;;;;;;24.70;55.10;;;;;;6310359;27;19927;-38
2022/08/21 11:14:41;;;;;;;;;;;24.70;55.20;;;;;;6292179;27;20708;-42
2022/08/21 11:17:55;;;;;;;;;;;24.70;55.70;;;;;;6310749;27;20048;-38
2022/08/21 11:21:01;;;;;;;;;;;24.70;55.20;;;;;;6294252;27;20407;-39
2022/08/21 11:24:08;;;;;;;;;;;24.70;55.10;;;;;;6290837;27;21106;-40
2022/08/21 11:27:15;;;;;;;;;;;25.20;55.40;;;;;;6309045;27;20485;-41
2022/08/21 11:30:16;;;;;;;;;;;24.80;55.20;;;;;;6310341;27;20710;-38
2022/08/21 11:33:27;;;;;;;;;;;25.00;55.30;;;;;;6315413;27;20303;-42
2022/08/21 11:36:32;;;;;;;;;;;24.90;55.90;;;;;;6313424;27;20500;-39
2022/08/21 11:39:39;;;;;;;;;;;25.00;55.30;;;;;;6309470;27;20045;-42
2022/08/21 11:42:45;;;;;;;;;;;24.60;55.10;;;;;;6310586;27;20014;-38
2022/08/21 11:45:49;;;;;;;;;;;24.70;55.10;;;;;;6301836;27;19958;-39
2022/08/21 11:48:59;;;;;;;;;;;24.60;55.10;;;;;;6284809;27;20038;-40
2022/08/21 11:52:07;;;;;;;;;;;24.70;55.20;;;;;;6302533;27;19934;-38
2022/08/21 11:55:12;;;;;;;;;;;24.70;55.10;;;;;;6291269;27;19927;-41
2022/08/21 11:58:17;;;;;;;;;;;24.70;55.20;;;;;;6305491;27;20214;-38
2022/08/21 12:01:21;;;;;;;;;;;24.80;55.30;;;;;;6305998;27;20870;-38
2022/08/21 12:04:28;;;;;;;;;;;25.00;55.30;;;;;;6306065;27;20437;-40
2022/08/21 12:07:32;;;;;;;;;;;24.80;55.30;;;;;;6305239;27;19923;-39
2022/08/21 12:10:35;;;;;;;;;;;24.80;55.30;;;;;;6309786;27;20054;-40
2022/08/21 12:13:37;;;;;;;;;;;24.60;55.20;;;;;;6307398;27;20197;-38
2022/08/21 12:16:44;;;;;;;;;;;24.70;55.30;;;;;;6286764;27;19934;-39
2022/08/21 12:19:56;;;;;;;;;;;24.90;55.40;;;;;;6304295;27;20824;-40
2022/08/21 12:23:03;;;;;;;;;;;25.30;55.70;;;;;;6286900;27;19923;-40
2022/08/21 12:26:18;;;;;;;;;;;24.70;55.30;;;;;;6301632;27;20811;-38
2022/08/21 12:29:23;;;;;;;;;;;25.10;55.60;;;;;;6302617;27;19933;-39
2022/08/21 12:32:27;;;;;;;;;;;24.90;55.40;;;;;;6305399;27;20128;-39
2022/08/21 12:35:32;;;;;;;;;;;25.00;55.50;;;;;;6284932;27;20179;-40
2022/08/21 12:38:35;;;;;;;;;;;24.90;55.50;;;;;;6310363;27;20315;-40
2022/08/21 12:41:42;;;;;;;;;;;24.70;55.40;;;;;;6287439;27;20315;-38
2022/08/21 12:44:45;;;;;;;;;;;25.00;55.50;;;;;;6305198;27;20071;-39
2022/08/21 12:47:48;;;;;;;;;;;24.50;55.30;;;;;;6296864;27;19924;-41
2022/08/21 12:50:51;;;;;;;;;;;24.90;55.50;;;;;;6288965;27;20083;-40
2022/08/21 12:53:54;;;;;;;;;;;24.70;55.40;;;;;;6307739;27;20360;-38
2022/08/21 12:56:57;;;;;;;;;;;24.90;55.50;;;;;;6280001;27;20230;-39
2022/08/21 12:59:59;;;;;;;;;;;24.90;55.50;;;;;;6296640;27;20326;-38
2022/08/21 13:03:00;;;;;;;;;;;24.90;55.50;;;;;;6298013;27;19926;-40
2022/08/21 13:06:04;;;;;;;;;;;25.10;55.70;;;;;;6299022;27;20236;-39
2022/08/21 13:09:07;;;;;;;;;;;24.90;55.50;;;;;;6285514;27;19927;-39
2022/08/21 13:12:08;;;;;;;;;;;24.80;55.50;;;;;;6300111;27;21036;-43
2022/08/21 13:15:11;;;;;;;;;;;24.90;55.50;;;;;;6304474;27;20468;-38
2022/08/21 13:18:22;;;;;;;;;;;25.00;55.60;;;;;;6299984;27;20439;-38
2022/08/21 13:21:28;;;;;;;;;;;24.80;55.50;;;;;;6296650;27;20046;-38
2022/08/21 13:24:30;;;;;;;;;;;25.00;55.60;;;;;;6282025;27;19934;-38
2022/08/21 13:27:57;;;;;;;;;;;24.90;55.60;;;;;;6284070;27;19934;-39
2022/08/21 13:31:01;;;;;;;;;;;24.70;55.50;;;;;;6297735;27;19930;-38
2022/08/21 13:34:04;;;;;;;;;;;24.80;55.60;;;;;;6299987;27;19923;-39
2022/08/21 13:37:07;;;;;;;;;;;25.30;55.90;;;;;;6274546;27;20360;-39
2022/08/21 13:40:10;;;;;;;;;;;24.90;55.70;;;;;;6298140;27;19927;-38
2022/08/21 13:43:16;;;;;;;;;;;24.90;55.70;;;;;;6293340;27;21032;-38
2022/08/21 13:46:24;;;;;;;;;;;24.90;55.70;;;;;;6277260;27;20094;-40
2022/08/21 13:49:28;;;;;;;;;;;24.90;55.70;;;;;;6294723;27;19927;-39
2022/08/21 13:52:30;;;;;;;;;;;25.10;55.90;;;;;;6298852;27;20379;-38
2022/08/21 13:55:36;;;;;;;;;;;24.80;55.70;;;;;;6301217;27;20644;-38
2022/08/21 13:58:42;;;;;;;;;;;24.90;55.80;;;;;;6297622;27;20323;-39
2022/08/21 14:01:49;;;;;;;;;;;24.80;55.80;;;;;;6278489;27;20578;-40
2022/08/21 14:04:55;;;;;;;;;;;24.80;55.80;;;;;;6283836;27;20342;-40
2022/08/21 14:07:59;;;;;;;;;;;25.10;56.00;;;;;;6297990;27;20572;-39
2022/08/21 14:11:02;;;;;;;;;;;25.10;56.00;;;;;;6298984;27;20104;-41
2022/08/21 14:14:08;;;;;;;;;;;24.80;55.90;;;;;;6300163;27;19966;-39
2022/08/21 14:17:12;;;;;;;;;;;25.00;56.00;;;;;;6293767;27;20130;-39
2022/08/21 14:20:29;;;;;;;;;;;24.70;55.90;;;;;;6297392;27;19973;-38
2022/08/21 14:23:31;;;;;;;;;;;25.10;56.10;;;;;;6298511;27;20339;-38
2022/08/21 14:26:34;;;;;;;;;;;25.00;56.10;;;;;;6298436;27;20037;-39
2022/08/21 14:29:36;;;;;;;;;;;24.90;56.00;;;;;;6289264;27;20791;-40
2022/08/21 14:32:39;;;;;;;;;;;25.10;56.20;;;;;;6293090;27;20048;-41
2022/08/21 14:35:47;;;;;;;;;;;24.90;56.10;;;;;;6290563;27;20287;-38
2022/08/21 14:38:48;;;;;;;;;;;24.70;56.00;;;;;;6290785;27;20766;-38
2022/08/21 14:41:51;;;;;;;;;;;25.00;56.20;;;;;;6296942;27;20237;-41
2022/08/21 14:44:54;;;;;;;;;;;24.80;56.10;;;;;;6296644;27;20266;-39
2022/08/21 14:47:56;;;;;;;;;;;24.70;56.10;;;;;;6295176;27;20426;-39
2022/08/21 14:50:58;;;;;;;;;;;24.90;56.20;;;;;;6289766;27;20262;-39
2022/08/21 14:54:06;;;;;;;;;;;25.00;56.30;;;;;;6278903;27;20174;-38
2022/08/21 14:57:11;;;;;;;;;;;25.20;56.50;;;;;;6282932;27;20034;-38
2022/08/21 15:00:16;;;;;;;;;;;24.90;56.30;;;;;;6290331;27;20338;-41
2022/08/21 15:03:18;;;;;;;;;;;25.00;56.40;;;;;;6277807;27;19927;-40
2022/08/21 15:06:20;;;;;;;;;;;24.90;56.30;;;;;;6296600;27;20453;-38
2022/08/21 15:09:23;;;;;;;;;;;24.80;56.20;;;;;;6274801;27;20103;-38
2022/08/21 15:12:25;;;;;;;;;;;24.90;56.40;;;;;;6297110;27;20279;-39
2022/08/21 15:15:26;;;;;;;;;;;25.00;56.50;;;;;;6275494;27;20118;-39
2022/08/21 15:18:29;;;;;;;;;;;24.70;56.30;;;;;;6296021;27;19941;-39
2022/08/21 15:21:30;;;;;;;;;;;25.10;56.60;;;;;;6293053;27;20045;-38
2022/08/21 15:24:32;;;;;;;;;;;24.70;56.30;;;;;;6291369;27;20440;-41
2022/08/21 15:27:34;;;;;;;;;;;25.00;56.50;;;;;;6292039;27;19933;-39
2022/08/21 15:30:36;;;;;;;;;;;25.10;56.70;;;;;;6292679;27;19927;-39
2022/08/21 15:33:38;;;;;;;;;;;24.80;56.50;;;;;;6275171;27;20282;-41
2022/08/21 15:36:39;;;;;;;;;;;24.70;56.50;;;;;;6293978;27;19983;-39
2022/08/21 15:39:41;;;;;;;;;;;24.90;56.60;;;;;;6290606;27;20038;-39
2022/08/21 15:42:44;;;;;;;;;;;24.80;56.50;;;;;;6298595;27;20101;-38
2022/08/21 15:45:45;;;;;;;;;;;24.90;56.60;;;;;;6296119;27;20819;-38
2022/08/21 15:48:47;;;;;;;;;;;25.20;56.80;;;;;;6298418;27;19927;-39
2022/08/21 15:51:48;;;;;;;;;;;24.80;56.60;;;;;;6301267;27;19950;-38
2022/08/21 15:54:51;;;;;;;;;;;24.90;56.70;;;;;;6294622;27;19956;-39
2022/08/21 15:57:52;;;;;;;;;;;25.10;56.90;;;;;;6296712;27;20229;-38
2022/08/21 16:01:00;;;;;;;;;;;25.00;56.80;;;;;;6300870;27;19923;-38
2022/08/21 16:04:01;;;;;;;;;;;24.90;56.80;;;;;;6294723;27;20213;-42
2022/08/21 16:07:03;;;;;;;;;;;24.90;56.90;;;;;;6301680;27;20818;-40
2022/08/21 16:10:11;;;;;;;;;;;24.90;56.80;;;;;;6303486;27;20046;-39
2022/08/21 16:13:16;;;;;;;;;;;24.90;56.80;;;;;;6301213;27;19938;-42
2022/08/21 16:16:19;;;;;;;;;;;24.90;56.80;;;;;;6278945;27;20698;-40
2022/08/21 16:19:20;;;;;;;;;;;24.90;56.80;;;;;;6295409;27;19930;-39
2022/08/21 16:22:22;;;;;;;;;;;24.70;56.80;;;;;;6278109;27;19987;-38
2022/08/21 16:25:24;;;;;;;;;;;24.90;56.90;;;;;;6301456;27;19926;-38
2022/08/21 16:28:25;;;;;;;;;;;24.90;56.90;;;;;;6274886;27;20185;-39
2022/08/21 16:31:28;;;;;;;;;;;25.00;57.00;;;;;;6295772;27;20337;-38
2022/08/21 16:34:30;;;;;;;;;;;25.00;57.00;;;;;;6273388;27;20403;-40
2022/08/21 16:37:31;;;;;;;;;;;24.70;56.90;;;;;;6296346;27;20645;-38
2022/08/21 16:40:35;;;;;;;;;;;25.10;57.10;;;;;;6297279;27;19988;-38
2022/08/21 16:43:38;;;;;;;;;;;25.10;57.20;;;;;;6295777;27;20140;-39
2022/08/21 16:46:40;;;;;;;;;;;24.90;57.00;;;;;;6303116;27;20412;-42
2022/08/21 16:49:42;;;;;;;;;;;24.90;57.10;;;;;;6302249;27;20720;-39
2022/08/21 16:52:44;;;;;;;;;;;24.90;57.10;;;;;;6300423;27;20747;-39
2022/08/21 16:55:46;;;;;;;;;;;24.80;57.10;;;;;;6303926;27;19982;-41
2022/08/21 16:58:48;;;;;;;;;;;24.70;57.00;;;;;;6279573;27;20415;-39
2022/08/21 17:01:51;;;;;;;;;;;24.70;57.00;;;;;;6282183;27;19923;-39
2022/08/21 17:04:52;;;;;;;;;;;24.90;57.10;;;;;;6299666;27;19949;-39
2022/08/21 17:07:54;;;;;;;;;;;25.00;57.20;;;;;;6300599;27;19942;-39
2022/08/21 17:10:57;;;;;;;;;;;24.90;57.20;;;;;;6298923;27;20555;-39
2022/08/21 17:13:59;;;;;;;;;;;25.00;57.30;;;;;;6297865;27;20222;-38
2022/08/21 17:17:07;;;;;;;;;;;24.60;57.10;;;;;;6303487;27;19950;-40
2022/08/21 17:20:08;;;;;;;;;;;24.90;57.30;;;;;;6281121;27;20744;-38
2022/08/21 17:23:10;;;;;;;;;;;25.00;57.30;;;;;;6299595;27;20079;-38
2022/08/21 17:26:13;;;;;;;;;;;24.70;57.20;;;;;;6285853;27;20448;-38
2022/08/21 17:29:15;;;;;;;;;;;24.90;57.30;;;;;;6306947;27;20270;-39
2022/08/21 17:32:17;;;;;;;;;;;24.70;57.20;;;;;;6287231;27;19926;-38
2022/08/21 17:35:21;;;;;;;;;;;25.10;57.50;;;;;;6305076;27;20175;-40
2022/08/21 17:38:23;;;;;;;;;;;25.00;57.40;;;;;;6298782;27;20846;-39
2022/08/21 17:41:29;;;;;;;;;;;25.30;57.70;;;;;;6277462;27;19927;-40
2022/08/21 17:44:30;;;;;;;;;;;24.70;57.30;;;;;;6299427;27;20097;-39
2022/08/21 17:47:32;;;;;;;;;;;25.00;57.50;;;;;;6302712;27;20176;-38
2022/08/21 17:50:34;;;;;;;;;;;24.70;57.40;;;;;;6302953;27;20210;-39